SV1IW Athens current weather conditions

sailwx.info

Wind from 305 at 2 knots gusting 4

Air temperature 20.0° C
Dewpoint 3.2° C

Last reported at 2016-Sep-27 21:30 UTC.
Time now 2016-Sep-27 22:21 UTC

Location: N 37°58' E 023°43'.
View on Google Maps.

See reports from other nearby stations

  
Tides and Currents Weather Stations Pressure Air Temp Water Temp Dewpoint Dewpoint Depression Visibility Wind Speed Wind Dir Waves Ship Positions
date/time (UTC)wind fromknots sea level pressurealtimeterstation pressurevisibilityair tempwater tempwave heightnotes
2016-Sep-27 21:30 305 2 gusting 4 20.0
2016-Sep-27 21:00 008 2 gusting 6 20.0
2016-Sep-27 20:30 007 4 gusting 6 20.0
2016-Sep-27 20:00 023 2 gusting 6 20.6
2016-Sep-27 19:30 009 5 gusting 6 20.6
2016-Sep-27 19:00 357 1 gusting 6 20.6
2016-Sep-27 18:30 005 2 gusting 6 20.6
2016-Sep-27 18:00 21.1
2016-Sep-27 17:30 001 6 gusting 10 21.1
2016-Sep-27 17:00 359 5 gusting 8 21.7
2016-Sep-27 16:30 21.7
2016-Sep-27 16:00 003 6 gusting 10 22.2
2016-Sep-27 15:30 348 4 gusting 10 22.8
2016-Sep-27 15:00 019 5 gusting 11 23.3
2016-Sep-27 14:30 009 5 gusting 10 23.9
2016-Sep-27 14:00 007 6 gusting 12 23.3
2016-Sep-27 13:30 026 6 gusting 12 23.9
2016-Sep-27 13:01 003 5 gusting 13 24.4
2016-Sep-27 12:30 002 4 gusting 10 24.4
2016-Sep-27 12:00 004 4 gusting 8 25.6
2016-Sep-27 11:30 353 4 gusting 12 23.9
2016-Sep-27 11:00 354 4 gusting 7 25.0